createdAt,value
2022-08-21T00:01:40.435Z,79.3
2022-08-21T00:06:40.430Z,79.3
2022-08-21T00:11:40.589Z,79.3
2022-08-21T00:16:40.401Z,79.3
2022-08-21T00:21:40.454Z,79.3
2022-08-21T00:26:40.699Z,79.4
2022-08-21T00:31:40.412Z,79.5
2022-08-21T00:36:40.429Z,79.5
2022-08-21T00:41:40.548Z,79.6
2022-08-21T00:46:40.405Z,79.6
2022-08-21T00:51:40.314Z,79.6
2022-08-21T00:56:40.740Z,79.5
2022-08-21T01:01:40.725Z,79.5
2022-08-21T01:06:40.422Z,79.6
2022-08-21T01:11:40.422Z,79.6
2022-08-21T01:16:40.487Z,79.6
2022-08-21T01:21:40.380Z,79.7
2022-08-21T01:26:40.599Z,79.8
2022-08-21T01:31:40.419Z,79.8
2022-08-21T01:36:40.354Z,79.9
2022-08-21T01:41:40.453Z,79.9
2022-08-21T01:46:40.382Z,80.0
2022-08-21T01:51:40.184Z,80.0
2022-08-21T01:56:40.404Z,80.1
2022-08-21T02:01:40.258Z,80.2
2022-08-21T02:06:40.262Z,80.2
2022-08-21T02:11:40.462Z,80.4
2022-08-21T02:16:40.258Z,80.3
2022-08-21T02:21:40.343Z,80.4
2022-08-21T02:26:40.337Z,80.4
2022-08-21T02:31:40.232Z,80.5
2022-08-21T02:36:40.407Z,80.5
2022-08-21T02:41:40.342Z,80.6
2022-08-21T02:46:40.224Z,80.6
2022-08-21T02:51:40.331Z,80.7
2022-08-21T02:56:40.380Z,80.7
2022-08-21T03:01:40.614Z,80.8
2022-08-21T03:06:40.171Z,80.8
2022-08-21T03:11:40.216Z,80.9
2022-08-21T03:16:40.211Z,80.9
2022-08-21T03:21:40.108Z,80.9
2022-08-21T03:26:41.448Z,81.0
2022-08-21T03:31:40.159Z,81.0
2022-08-21T03:36:40.175Z,80.9
2022-08-21T03:41:40.328Z,81.0
2022-08-21T03:46:40.190Z,81.0
2022-08-21T03:51:40.148Z,81.0
2022-08-21T03:56:40.271Z,81.0
2022-08-21T04:01:40.130Z,81.1
2022-08-21T04:06:40.219Z,81.1
2022-08-21T04:11:40.227Z,81.1
2022-08-21T04:16:39.991Z,81.1
2022-08-21T04:21:40.120Z,81.0
2022-08-21T04:26:40.408Z,81.1
2022-08-21T04:31:40.124Z,81.1
2022-08-21T04:36:39.951Z,81.1
2022-08-21T04:41:40.422Z,81.0
2022-08-21T04:46:40.316Z,81.0
2022-08-21T04:51:39.903Z,81.0
2022-08-21T04:56:40.115Z,81.1
2022-08-21T05:01:39.990Z,81.1
2022-08-21T05:06:40.057Z,81.1
2022-08-21T05:11:40.176Z,81.1
2022-08-21T05:16:40.182Z,81.1
2022-08-21T05:21:40.247Z,81.1
2022-08-21T05:26:46.450Z,81.1
2022-08-21T05:31:39.993Z,81.1
2022-08-21T05:36:39.945Z,81.1
2022-08-21T05:41:40.084Z,81.1
2022-08-21T05:46:39.919Z,81.1
2022-08-21T05:51:39.970Z,81.1
2022-08-21T05:56:40.063Z,81.1
2022-08-21T06:01:40.034Z,81.1
2022-08-21T06:06:39.840Z,81.0
2022-08-21T06:11:39.986Z,81.0
2022-08-21T06:16:39.835Z,80.9
2022-08-21T06:21:39.816Z,80.8
2022-08-21T06:26:39.948Z,80.8
2022-08-21T06:31:39.811Z,80.7
2022-08-21T06:36:39.798Z,80.7
2022-08-21T06:41:39.938Z,80.6
2022-08-21T06:46:39.858Z,80.5
2022-08-21T06:51:39.886Z,80.3
2022-08-21T06:56:40.015Z,80.2
2022-08-21T07:01:39.787Z,80.2
2022-08-21T07:06:39.814Z,80.2
2022-08-21T07:11:44.153Z,80.1
2022-08-21T07:16:39.800Z,80.0
2022-08-21T07:21:39.823Z,80.1
2022-08-21T07:26:40.069Z,80.1
2022-08-21T07:31:39.793Z,79.5
2022-08-21T07:36:39.733Z,79.2
2022-08-21T07:41:39.962Z,79.2
2022-08-21T07:46:39.847Z,79.4
2022-08-21T07:51:39.769Z,79.5
2022-08-21T07:56:39.952Z,79.7
2022-08-21T08:01:39.855Z,79.8
2022-08-21T08:06:39.815Z,79.7
2022-08-21T08:11:40.020Z,79.8
2022-08-21T08:16:39.643Z,79.8
2022-08-21T08:21:39.739Z,79.8
2022-08-21T08:26:39.900Z,79.6
2022-08-21T08:31:39.761Z,79.6
2022-08-21T08:36:39.634Z,79.6
2022-08-21T08:41:39.866Z,79.6
2022-08-21T08:46:39.734Z,79.5
2022-08-21T08:51:39.728Z,79.5
2022-08-21T08:56:39.538Z,79.5
2022-08-21T09:01:39.683Z,79.3
2022-08-21T09:06:39.655Z,79.2
2022-08-21T09:11:39.848Z,79.3
2022-08-21T09:16:39.531Z,78.7
2022-08-21T09:21:39.614Z,78.4
2022-08-21T09:26:39.812Z,78.5
2022-08-21T09:31:39.610Z,78.2
2022-08-21T09:36:39.592Z,77.9
2022-08-21T09:41:39.801Z,77.3
2022-08-21T09:46:39.563Z,77.4
2022-08-21T09:51:39.566Z,76.5
2022-08-21T09:56:39.843Z,76.2
2022-08-21T10:01:39.577Z,76.1
2022-08-21T10:06:39.586Z,75.9
2022-08-21T10:11:39.797Z,75.9
2022-08-21T10:16:39.571Z,74.7
2022-08-21T10:21:39.410Z,75.4
2022-08-21T10:26:39.737Z,74.7
2022-08-21T10:31:39.613Z,74.6
2022-08-21T10:36:39.572Z,74.3
2022-08-21T10:41:39.400Z,74.0
2022-08-21T10:46:39.649Z,73.5
2022-08-21T10:51:39.506Z,73.5
2022-08-21T10:56:39.595Z,73.7
2022-08-21T11:01:39.480Z,73.7
2022-08-21T11:06:39.535Z,73.5
2022-08-21T11:11:42.785Z,73.4
2022-08-21T11:16:39.381Z,73.4
2022-08-21T11:21:39.537Z,73.3
2022-08-21T11:26:39.573Z,73.2
2022-08-21T11:31:39.820Z,72.5
2022-08-21T11:36:42.047Z,72.6
2022-08-21T11:46:39.678Z,72.4
2022-08-21T11:51:39.356Z,72.2
2022-08-21T11:56:39.728Z,72.2
2022-08-21T12:01:39.433Z,71.9
2022-08-21T12:06:39.577Z,72.0
2022-08-21T12:11:39.565Z,72.0
2022-08-21T12:16:39.720Z,71.9
2022-08-21T12:21:39.611Z,71.9
2022-08-21T12:26:39.513Z,71.7
2022-08-21T12:31:39.384Z,71.8
2022-08-21T12:36:39.426Z,71.5
2022-08-21T12:41:39.559Z,71.3
2022-08-21T12:46:39.436Z,71.4
2022-08-21T12:51:39.367Z,70.2
2022-08-21T12:56:39.646Z,70.9
2022-08-21T13:01:41.675Z,70.6
2022-08-21T13:06:39.551Z,70.2
2022-08-21T13:11:40.903Z,70.6
2022-08-21T13:16:39.320Z,70.4
2022-08-21T13:21:39.323Z,70.7
2022-08-21T13:26:39.947Z,70.7
2022-08-21T13:31:39.861Z,70.9
2022-08-21T13:36:39.543Z,70.9
2022-08-21T13:41:39.515Z,71.1
2022-08-21T13:46:39.265Z,71.3
2022-08-21T13:51:39.461Z,71.4
2022-08-21T13:56:39.475Z,71.5
2022-08-21T14:01:39.501Z,71.6
2022-08-21T14:06:39.354Z,71.5
2022-08-21T14:11:39.440Z,71.6
2022-08-21T14:16:39.642Z,71.9
2022-08-21T14:21:39.301Z,72.2
2022-08-21T14:26:39.294Z,72.2
2022-08-21T14:31:43.192Z,72.3
2022-08-21T14:36:39.364Z,72.4
2022-08-21T14:41:39.391Z,72.6
2022-08-21T14:46:55.356Z,72.6
2022-08-21T14:51:39.301Z,73.6
2022-08-21T14:56:39.382Z,73.4
2022-08-21T15:01:39.547Z,73.8
2022-08-21T15:06:39.217Z,73.8
2022-08-21T15:11:42.661Z,73.9
2022-08-21T15:16:39.111Z,74.1
2022-08-21T15:21:39.134Z,74.4
2022-08-21T15:26:39.366Z,74.6
2022-08-21T15:31:38.963Z,74.8
2022-08-21T15:36:39.145Z,74.9
2022-08-21T15:41:39.465Z,75.0
2022-08-21T15:46:45.238Z,75.1
2022-08-21T15:51:43.531Z,75.1
2022-08-21T15:56:40.978Z,75.3
2022-08-21T16:01:44.755Z,75.3
2022-08-21T16:06:54.054Z,75.5
2022-08-21T16:11:39.304Z,75.7
2022-08-21T16:16:39.189Z,75.8
2022-08-21T16:21:39.025Z,76.0
2022-08-21T16:26:39.298Z,76.3
2022-08-21T16:31:39.447Z,76.4
2022-08-21T16:36:38.988Z,76.5
2022-08-21T16:41:39.430Z,76.7
2022-08-21T16:46:39.029Z,76.7
2022-08-21T16:51:39.021Z,77.0
2022-08-21T16:56:40.409Z,76.9
2022-08-21T17:01:39.186Z,77.0
2022-08-21T17:06:38.901Z,77.1
2022-08-21T17:11:39.278Z,77.2
2022-08-21T17:16:39.181Z,77.3
2022-08-21T17:21:39.232Z,77.4
2022-08-21T17:26:40.131Z,77.4
2022-08-21T17:31:38.968Z,77.6
2022-08-21T17:36:40.682Z,77.6
2022-08-21T17:41:38.832Z,77.8
2022-08-21T17:46:39.105Z,77.8
2022-08-21T17:51:39.056Z,77.9
2022-08-21T17:56:38.936Z,78.0
2022-08-21T18:01:39.915Z,77.9
2022-08-21T18:06:40.530Z,78.0
2022-08-21T18:11:39.366Z,78.1
2022-08-21T18:16:38.897Z,78.1
2022-08-21T18:21:39.748Z,78.1
2022-08-21T18:26:39.488Z,78.1
2022-08-21T18:31:39.011Z,78.2
2022-08-21T18:36:39.031Z,78.3
2022-08-21T18:41:38.722Z,78.3
2022-08-21T18:56:39.291Z,78.5
2022-08-21T19:01:38.950Z,78.6
2022-08-21T19:06:40.360Z,78.6
2022-08-21T19:11:40.984Z,78.7
2022-08-21T19:16:39.232Z,78.7
2022-08-21T19:21:40.092Z,78.9
2022-08-21T19:26:41.564Z,79.0
2022-08-21T19:31:38.879Z,79.1
2022-08-21T19:36:39.044Z,79.2
2022-08-21T19:41:38.961Z,79.2
2022-08-21T19:46:39.250Z,79.4
2022-08-21T19:51:40.031Z,79.4
2022-08-21T19:56:39.588Z,79.5
2022-08-21T20:01:40.100Z,79.5
2022-08-21T20:06:38.566Z,79.5
2022-08-21T20:11:38.674Z,79.6
2022-08-21T20:16:38.824Z,79.6
2022-08-21T20:26:38.598Z,79.7
2022-08-21T20:31:38.720Z,79.8
2022-08-21T20:36:38.606Z,79.8
2022-08-21T20:41:38.496Z,79.8
2022-08-21T20:46:38.641Z,79.9
2022-08-21T20:51:38.515Z,80.0
2022-08-21T20:56:38.539Z,80.0
2022-08-21T21:01:38.595Z,80.0
2022-08-21T21:06:38.548Z,80.1
2022-08-21T21:11:38.559Z,80.1
2022-08-21T21:16:38.976Z,80.1
2022-08-21T21:21:38.514Z,80.1
2022-08-21T21:26:38.483Z,80.1
2022-08-21T21:31:38.671Z,80.1
2022-08-21T21:41:41.371Z,80.1
2022-08-21T21:46:38.743Z,80.1
2022-08-21T21:51:38.927Z,80.1
2022-08-21T21:56:40.414Z,80.1
2022-08-21T22:01:38.542Z,80.1
2022-08-21T22:06:38.388Z,80.2
2022-08-21T22:11:38.406Z,80.2
2022-08-21T22:16:38.502Z,80.2
2022-08-21T22:21:38.358Z,80.3
2022-08-21T22:26:38.413Z,80.3
2022-08-21T22:31:38.608Z,80.4
2022-08-21T22:36:38.337Z,80.5
2022-08-21T22:41:38.364Z,80.6
2022-08-21T22:46:38.536Z,80.7
2022-08-21T22:51:38.311Z,80.9
2022-08-21T22:56:38.320Z,80.9
2022-08-21T23:01:38.575Z,81.0
2022-08-21T23:06:38.457Z,81.2
2022-08-21T23:11:38.328Z,81.4
2022-08-21T23:16:38.433Z,81.9
2022-08-21T23:21:38.293Z,81.7
2022-08-21T23:26:38.278Z,81.6
2022-08-21T23:31:38.498Z,81.9
2022-08-21T23:36:38.272Z,81.8
2022-08-21T23:41:38.253Z,81.8
2022-08-21T23:46:38.470Z,81.8
2022-08-21T23:51:38.186Z,81.9
2022-08-21T23:56:38.230Z,81.9
